KMUI/MUI METAR and TAF weather

Enter ICAO airport designator
Station Type Date Time Source
KMUI METAR 2020/11/26 08:56 UTC NOAA

KMUI 260856Z AUTO 05003KT 5SM BR OVC008 09/09 A2998 RMK AO2 SLP156 60002 T00940094 57029


Station Type Date Time Source
KMUI Decoded METAR 2020/11/26 08:56 UTC NOAA

Muir Army Air Field / Indiantown, PA, United States (KMUI) 40-26N 076-34W
Nov 26, 2020 - 03:56 AM EST / 2020.11.26 0856 UTC
Wind: from the NE (050 degrees) at 3 MPH (3 KT):0
Visibility: 5 mile(s):0
Sky conditions: overcast
Weather: mist
Temperature: 48.9 F (9.4 C)
Dew Point: 48.9 F (9.4 C)
Relative Humidity: 100%
Pressure (altimeter): 29.98 in. Hg (1015 hPa)
Pressure tendency: 0.09 inches (2.9 hPa) lower than three hours ago
ob: KMUI 260856Z AUTO 05003KT 5SM BR OVC008 09/09 A2998 RMK AO2 SLP156 60002 T00940094 57029
cycle: 9

Station Type Date Time Source
KMUI TAF 2020/11/25 19:06 UTC NOAA

TAF KMUI 251900Z 2519/2701 VRB06KT 9999 BKN090 QNH3020INS
BECMG 2603/2604 17012G18KT 9000 -SHRA OVC010 QNH3013INS
BECMG 2615/2616 22006KT 9999 NSW BKN020 OVC060 QNH2990INS TX15/2618Z TN07/2600Z LAST NO
AMDS AFT 2605 NEXT 3011

Example: see airport list